Time;durP1;ratioP1;P1;durP2;ratioP2;P2;SDS_P1;SDS_P2;PMS_P1;PMS_P2;Temp;Humidity;BMP_temperature;BMP_pressure;BME280_temperature;BME280_humidity;BME280_pressure;Samples;Min_cycle;Max_cycle;Signal;HPM_P1;HPM_P2
2022/07/01 00:01:35;;;;;;;0.00;0.00;;;;;;;;;;4923862;29;20028;-58
2022/07/01 00:04:00;;;;;;;0.00;0.00;;;;;;;;;;4927867;29;20090;-58
2022/07/01 00:06:25;;;;;;;0.00;0.00;;;;;;;;;;4926710;29;20032;-58
2022/07/01 00:08:51;;;;;;;0.00;0.00;;;;;;;;;;4931638;29;20039;-59
2022/07/01 00:11:16;;;;;;;0.00;0.00;;;;;;;;;;4936785;29;20031;-59
2022/07/01 00:13:41;;;;;;;0.00;0.00;;;;;;;;;;4932269;29;20024;-58
2022/07/01 00:16:06;;;;;;;0.00;0.00;;;;;;;;;;4923612;29;20028;-58
2022/07/01 00:18:32;;;;;;;1.45;0.52;;;;;;;;;;4910138;29;20040;-58
2022/07/01 00:20:57;;;;;;;0.00;0.00;;;;;;;;;;4931646;29;20097;-60
2022/07/01 00:23:22;;;;;;;0.43;0.20;;;;;;;;;;4932181;29;20031;-60
2022/07/01 00:25:48;;;;;;;0.00;0.00;;;;;;;;;;4935477;29;20389;-58
2022/07/01 00:28:13;;;;;;;0.00;0.00;;;;;;;;;;4912773;29;20076;-57
2022/07/01 00:30:38;;;;;;;0.00;0.00;;;;;;;;;;4936505;29;20353;-57
2022/07/01 00:33:04;;;;;;;0.00;0.00;;;;;;;;;;4932774;29;20030;-58
2022/07/01 00:35:29;;;;;;;0.35;0.30;;;;;;;;;;4928389;29;20039;-58
2022/07/01 00:37:54;;;;;;;0.00;0.00;;;;;;;;;;4923818;29;20036;-58
2022/07/01 00:40:20;;;;;;;0.30;0.20;;;;;;;;;;4930005;29;20079;-59
2022/07/01 00:42:45;;;;;;;0.00;0.00;;;;;;;;;;4929599;29;20501;-59
2022/07/01 00:45:11;;;;;;;0.17;0.17;;;;;;;;;;4934973;29;20035;-59
2022/07/01 00:47:37;;;;;;;0.00;0.00;;;;;;;;;;4929614;29;20042;-59
2022/07/01 00:50:05;;;;;;;0.00;0.00;;;;;;;;;;4932964;29;20020;-59
2022/07/01 00:52:31;;;;;;;0.20;0.20;;;;;;;;;;4928594;29;20034;-59
2022/07/01 00:54:56;;;;;;;0.00;0.00;;;;;;;;;;4931652;29;20024;-59
2022/07/01 00:57:21;;;;;;;0.00;0.00;;;;;;;;;;4929756;29;20106;-59
2022/07/01 00:59:47;;;;;;;0.00;0.00;;;;;;;;;;4931146;29;20026;-59
2022/07/01 01:02:12;;;;;;;0.00;0.00;;;;;;;;;;4931617;29;20040;-59
2022/07/01 01:04:37;;;;;;;0.03;0.03;;;;;;;;;;4907986;29;20088;-58
2022/07/01 01:07:03;;;;;;;0.28;0.28;;;;;;;;;;4929329;29;20028;-59
2022/07/01 01:09:29;;;;;;;0.00;0.00;;;;;;;;;;4932028;29;20048;-59
2022/07/01 01:11:54;;;;;;;0.00;0.00;;;;;;;;;;4923204;29;20401;-60
2022/07/01 01:14:21;;;;;;;0.00;0.00;;;;;;;;;;4931061;29;20058;-59
2022/07/01 01:16:46;;;;;;;0.10;0.10;;;;;;;;;;4930080;29;20110;-59
2022/07/01 01:19:11;;;;;;;0.00;0.00;;;;;;;;;;4934861;29;20127;-59
2022/07/01 01:21:36;;;;;;;0.00;0.00;;;;;;;;;;4931667;29;20457;-58
2022/07/01 01:24:02;;;;;;;0.00;0.00;;;;;;;;;;4930233;29;20031;-58
2022/07/01 01:26:28;;;;;;;0.00;0.00;;;;;;;;;;4933303;29;20437;-58
2022/07/01 01:28:57;;;;;;;0.00;0.00;;;;;;;;;;4936199;29;20023;-58
2022/07/01 01:31:35;;;;;;;0.00;0.00;;;;;;;;;;4934692;29;20452;-58
2022/07/01 01:34:01;;;;;;;0.00;0.00;;;;;;;;;;4928047;29;20024;-58
2022/07/01 01:36:26;;;;;;;0.00;0.00;;;;;;;;;;4938971;29;20028;-58
2022/07/01 01:38:53;;;;;;;0.00;0.00;;;;;;;;;;4932620;29;20035;-57
2022/07/01 01:41:18;;;;;;;0.00;0.00;;;;;;;;;;4923031;29;20092;-59
2022/07/01 01:43:43;;;;;;;0.00;0.00;;;;;;;;;;4930643;29;20028;-58
2022/07/01 01:46:08;;;;;;;0.00;0.00;;;;;;;;;;4937541;29;20036;-59
2022/07/01 01:48:33;;;;;;;0.00;0.00;;;;;;;;;;4932409;29;20115;-59
2022/07/01 01:50:59;;;;;;;0.00;0.00;;;;;;;;;;4935924;29;20111;-59
2022/07/01 01:53:24;;;;;;;0.00;0.00;;;;;;;;;;4936904;29;20042;-59
2022/07/01 01:55:50;;;;;;;0.38;0.38;;;;;;;;;;4935198;29;20026;-59
2022/07/01 01:58:15;;;;;;;0.00;0.00;;;;;;;;;;4936950;29;20022;-59
2022/07/01 02:00:40;;;;;;;1.17;1.08;;;;;;;;;;4934854;29;20374;-60
2022/07/01 02:03:05;;;;;;;0.00;0.00;;;;;;;;;;4937297;29;20035;-59
2022/07/01 02:05:31;;;;;;;0.00;0.00;;;;;;;;;;4933128;29;20039;-59
2022/07/01 02:07:56;;;;;;;0.00;0.00;;;;;;;;;;4931302;29;20163;-60
2022/07/01 02:10:21;;;;;;;0.00;0.00;;;;;;;;;;4933070;29;20031;-59
2022/07/01 02:12:47;;;;;;;0.00;0.00;;;;;;;;;;4931561;29;20027;-59
2022/07/01 02:15:12;;;;;;;0.00;0.00;;;;;;;;;;4933974;29;20016;-60
2022/07/01 02:17:37;;;;;;;0.00;0.00;;;;;;;;;;4933166;29;20031;-60
2022/07/01 02:20:04;;;;;;;0.00;0.00;;;;;;;;;;4929136;29;20044;-59
2022/07/01 02:22:29;;;;;;;0.00;0.00;;;;;;;;;;4936420;29;20039;-59
2022/07/01 02:24:54;;;;;;;0.00;0.00;;;;;;;;;;4927232;29;20444;-60
2022/07/01 02:27:19;;;;;;;0.00;0.00;;;;;;;;;;4928397;29;20300;-59
2022/07/01 02:29:46;;;;;;;0.00;0.00;;;;;;;;;;4930479;29;20134;-58
2022/07/01 02:32:11;;;;;;;0.00;0.00;;;;;;;;;;4928715;29;20102;-58
2022/07/01 02:34:36;;;;;;;0.00;0.00;;;;;;;;;;4930985;29;20028;-57
2022/07/01 02:37:01;;;;;;;0.00;0.00;;;;;;;;;;4931921;29;20023;-58
2022/07/01 02:39:27;;;;;;;0.00;0.00;;;;;;;;;;4926206;29;20032;-58
2022/07/01 02:44:36;;;;;;;0.00;0.00;;;;;;;;;;4933155;29;20034;-57
2022/07/01 02:47:01;;;;;;;0.00;0.00;;;;;;;;;;4914180;29;20109;-59
2022/07/01 02:49:26;;;;;;;0.00;0.00;;;;;;;;;;4934151;29;20456;-58
2022/07/01 02:51:51;;;;;;;0.00;0.00;;;;;;;;;;4926129;29;20051;-58
2022/07/01 02:54:17;;;;;;;0.00;0.00;;;;;;;;;;4929444;29;20074;-59
2022/07/01 02:56:42;;;;;;;0.00;0.00;;;;;;;;;;4927418;29;20017;-59
2022/07/01 02:59:07;;;;;;;0.00;0.00;;;;;;;;;;4931149;29;20099;-58
2022/07/01 03:01:32;;;;;;;0.00;0.00;;;;;;;;;;4927335;29;20032;-59
2022/07/01 03:03:58;;;;;;;0.00;0.00;;;;;;;;;;4934037;29;20259;-58
2022/07/01 03:06:23;;;;;;;0.00;0.00;;;;;;;;;;4933057;29;20090;-58
2022/07/01 03:08:48;;;;;;;0.00;0.00;;;;;;;;;;4936084;29;20083;-58
2022/07/01 03:11:13;;;;;;;0.00;0.00;;;;;;;;;;4929140;29;20027;-58
2022/07/01 03:13:39;;;;;;;0.00;0.00;;;;;;;;;;4928928;29;20019;-58
2022/07/01 03:16:04;;;;;;;0.00;0.00;;;;;;;;;;4933921;29;20023;-58
2022/07/01 03:18:29;;;;;;;0.00;0.00;;;;;;;;;;4932156;29;20044;-59
2022/07/01 03:20:54;;;;;;;0.00;0.00;;;;;;;;;;4930013;29;20036;-58
2022/07/01 03:23:19;;;;;;;0.00;0.00;;;;;;;;;;4928868;29;20686;-58
2022/07/01 03:25:45;;;;;;;0.00;0.00;;;;;;;;;;4927859;29;20734;-57
2022/07/01 03:28:10;;;;;;;0.00;0.00;;;;;;;;;;4930604;29;20448;-58
2022/07/01 03:30:35;;;;;;;0.00;0.00;;;;;;;;;;4928425;29;20472;-57
2022/07/01 03:33:00;;;;;;;0.35;0.22;;;;;;;;;;4929894;29;20030;-58
2022/07/01 03:35:45;;;;;;;0.00;0.00;;;;;;;;;;4937474;29;20026;-58
2022/07/01 03:38:10;;;;;;;0.00;0.00;;;;;;;;;;4933160;29;20156;-58
2022/07/01 03:40:36;;;;;;;0.00;0.00;;;;;;;;;;4932113;29;20053;-58
2022/07/01 03:43:01;;;;;;;0.00;0.00;;;;;;;;;;4932761;29;20082;-58
2022/07/01 03:45:26;;;;;;;0.00;0.00;;;;;;;;;;4936628;29;20095;-58
2022/07/01 03:47:51;;;;;;;0.00;0.00;;;;;;;;;;4930849;29;20039;-58
2022/07/01 03:50:17;;;;;;;0.00;0.00;;;;;;;;;;4930800;29;20033;-56
2022/07/01 03:52:42;;;;;;;0.00;0.00;;;;;;;;;;4925035;29;20024;-58
2022/07/01 03:55:11;;;;;;;0.00;0.00;;;;;;;;;;4929002;29;20477;-55
2022/07/01 03:57:37;;;;;;;0.00;0.00;;;;;;;;;;4933903;29;20431;-57
2022/07/01 04:00:02;;;;;;;0.00;0.00;;;;;;;;;;4931912;29;20028;-57
2022/07/01 04:02:28;;;;;;;0.00;0.00;;;;;;;;;;4928320;29;20084;-57
2022/07/01 04:04:55;;;;;;;0.10;0.10;;;;;;;;;;4930772;29;20110;-59
2022/07/01 04:07:20;;;;;;;0.00;0.00;;;;;;;;;;4932159;29;20260;-58
2022/07/01 04:09:45;;;;;;;0.00;0.00;;;;;;;;;;4933042;29;20042;-58
2022/07/01 04:12:12;;;;;;;0.00;0.00;;;;;;;;;;4930621;29;20111;-58
2022/07/01 04:14:37;;;;;;;0.00;0.00;;;;;;;;;;4926888;29;20351;-58
2022/07/01 04:17:03;;;;;;;0.00;0.00;;;;;;;;;;4931865;29;20023;-57
2022/07/01 04:19:29;;;;;;;0.00;0.00;;;;;;;;;;4928967;29;20123;-59
2022/07/01 04:24:38;;;;;;;0.00;0.00;;;;;;;;;;4930918;29;20118;-60
2022/07/01 04:27:03;;;;;;;0.00;0.00;;;;;;;;;;4931991;29;20068;-59
2022/07/01 04:29:31;;;;;;;0.00;0.00;;;;;;;;;;4933495;29;20063;-59
2022/07/01 04:31:57;;;;;;;0.00;0.00;;;;;;;;;;4930642;29;20028;-59
2022/07/01 04:34:23;;;;;;;0.00;0.00;;;;;;;;;;4932632;29;20022;-58
2022/07/01 04:36:48;;;;;;;0.00;0.00;;;;;;;;;;4931570;29;20544;-60
2022/07/01 04:39:13;;;;;;;0.00;0.00;;;;;;;;;;4932075;29;20051;-59
2022/07/01 04:44:22;;;;;;;0.00;0.00;;;;;;;;;;4944450;29;20089;-58
2022/07/01 04:46:48;;;;;;;0.00;0.00;;;;;;;;;;4934294;29;20193;-58
2022/07/01 04:49:13;;;;;;;0.00;0.00;;;;;;;;;;4935452;29;20118;-57
2022/07/01 04:51:38;;;;;;;0.00;0.00;;;;;;;;;;4933193;29;20606;-58
2022/07/01 04:54:04;;;;;;;0.00;0.00;;;;;;;;;;4935265;29;20020;-58
2022/07/01 04:56:29;;;;;;;0.00;0.00;;;;;;;;;;4933511;29;20016;-58
2022/07/01 04:58:55;;;;;;;0.00;0.00;;;;;;;;;;4932814;29;20019;-58
2022/07/01 05:01:21;;;;;;;0.00;0.00;;;;;;;;;;4928121;29;20028;-58
2022/07/01 05:03:46;;;;;;;0.00;0.00;;;;;;;;;;4937449;29;20027;-58
2022/07/01 05:06:11;;;;;;;0.00;0.00;;;;;;;;;;4925866;29;20031;-59
2022/07/01 05:08:36;;;;;;;0.00;0.00;;;;;;;;;;4934941;29;20050;-58
2022/07/01 05:11:01;;;;;;;6.82;0.30;;;;;;;;;;4929537;29;20046;-59
2022/07/01 05:13:27;;;;;;;0.00;0.00;;;;;;;;;;4932433;29;20377;-59
2022/07/01 05:15:52;;;;;;;0.00;0.00;;;;;;;;;;4935460;29;20030;-58
2022/07/01 05:23:45;;;;;;;0.00;0.00;;;;;;;;;;4936258;29;20111;-59
2022/07/01 05:26:15;;;;;;;0.00;0.00;;;;;;;;;;4931413;29;20128;-59
2022/07/01 05:28:41;;;;;;;0.00;0.00;;;;;;;;;;4943271;29;20035;-59
2022/07/01 05:31:06;;;;;;;0.00;0.00;;;;;;;;;;4942147;29;20098;-60
2022/07/01 05:33:31;;;;;;;0.00;0.00;;;;;;;;;;4929777;29;20095;-58
2022/07/01 05:35:56;;;;;;;0.00;0.00;;;;;;;;;;4939644;29;20027;-59
2022/07/01 05:38:22;;;;;;;0.00;0.00;;;;;;;;;;4938884;29;20393;-59
2022/07/01 05:40:47;;;;;;;0.00;0.00;;;;;;;;;;4936622;29;20322;-59
2022/07/01 05:43:12;;;;;;;0.00;0.00;;;;;;;;;;4938517;29;20084;-59
2022/07/01 05:45:38;;;;;;;0.08;0.08;;;;;;;;;;4933856;29;20068;-57
2022/07/01 05:48:03;;;;;;;0.00;0.00;;;;;;;;;;4939562;29;20024;-59
2022/07/01 05:50:28;;;;;;;0.00;0.00;;;;;;;;;;4936356;29;20020;-58
2022/07/01 05:52:53;;;;;;;0.00;0.00;;;;;;;;;;4931050;29;20028;-58
2022/07/01 05:55:19;;;;;;;0.00;0.00;;;;;;;;;;4933450;29;20054;-59
2022/07/01 05:57:44;;;;;;;0.00;0.00;;;;;;;;;;4935550;29;20492;-58
2022/07/01 06:00:09;;;;;;;0.00;0.00;;;;;;;;;;4939156;29;20497;-58
2022/07/01 06:02:35;;;;;;;0.00;0.00;;;;;;;;;;4932194;29;20328;-59
2022/07/01 06:05:02;;;;;;;0.00;0.00;;;;;;;;;;4939020;29;20479;-58
2022/07/01 06:07:27;;;;;;;0.00;0.00;;;;;;;;;;4943209;29;20489;-59
2022/07/01 06:09:52;;;;;;;0.00;0.00;;;;;;;;;;4937580;29;20032;-58
2022/07/01 06:12:17;;;;;;;0.00;0.00;;;;;;;;;;4933025;29;20087;-58
2022/07/01 06:14:43;;;;;;;0.00;0.00;;;;;;;;;;4934719;29;20069;-58
2022/07/01 06:17:09;;;;;;;0.43;0.43;;;;;;;;;;4931601;29;20473;-58
2022/07/01 06:19:35;;;;;;;0.00;0.00;;;;;;;;;;4929444;29;20043;-57
2022/07/01 06:22:00;;;;;;;0.00;0.00;;;;;;;;;;4930029;29;20064;-58
2022/07/01 06:24:25;;;;;;;0.00;0.00;;;;;;;;;;4927408;29;20027;-58
2022/07/01 06:26:53;;;;;;;0.00;0.00;;;;;;;;;;4932174;29;20027;-59
2022/07/01 06:29:19;;;;;;;0.00;0.00;;;;;;;;;;4932348;29;20031;-58
2022/07/01 06:31:44;;;;;;;0.00;0.00;;;;;;;;;;4934728;29;20030;-58
2022/07/01 06:34:09;;;;;;;0.00;0.00;;;;;;;;;;4934543;29;20074;-58
2022/07/01 06:36:34;;;;;;;0.00;0.00;;;;;;;;;;4931003;29;20052;-58
2022/07/01 06:38:59;;;;;;;0.00;0.00;;;;;;;;;;4929795;29;20020;-59
2022/07/01 06:41:28;;;;;;;0.00;0.00;;;;;;;;;;4934279;29;20056;-58
2022/07/01 06:43:56;;;;;;;0.00;0.00;;;;;;;;;;4933588;29;20030;-58
2022/07/01 06:46:22;;;;;;;0.00;0.00;;;;;;;;;;4926261;29;20466;-59
2022/07/01 06:48:47;;;;;;;0.38;0.38;;;;;;;;;;4928873;29;20046;-58
2022/07/01 06:51:13;;;;;;;0.00;0.00;;;;;;;;;;4930746;29;20032;-58
2022/07/01 06:53:38;;;;;;;0.00;0.00;;;;;;;;;;4927231;29;20023;-58
2022/07/01 06:56:03;;;;;;;0.93;0.93;;;;;;;;;;4930365;29;20028;-58
2022/07/01 06:58:32;;;;;;;0.00;0.00;;;;;;;;;;4937333;29;20418;-58
2022/07/01 07:00:57;;;;;;;0.00;0.00;;;;;;;;;;4930191;29;20032;-58
2022/07/01 07:03:22;;;;;;;0.00;0.00;;;;;;;;;;4925686;29;20019;-58
2022/07/01 07:05:48;;;;;;;0.00;0.00;;;;;;;;;;4936418;29;20032;-58
2022/07/01 07:08:13;;;;;;;0.00;0.00;;;;;;;;;;4934766;29;20066;-58
2022/07/01 07:10:38;;;;;;;0.00;0.00;;;;;;;;;;4933826;29;20130;-60
2022/07/01 07:13:03;;;;;;;0.00;0.00;;;;;;;;;;4933363;29;20420;-58
2022/07/01 07:15:29;;;;;;;0.00;0.00;;;;;;;;;;4929509;29;20019;-58
2022/07/01 07:17:57;;;;;;;0.25;0.25;;;;;;;;;;4927960;29;21044;-58
2022/07/01 07:20:22;;;;;;;0.00;0.00;;;;;;;;;;4925785;29;20127;-58
2022/07/01 07:22:47;;;;;;;0.00;0.00;;;;;;;;;;4928378;29;20103;-59
2022/07/01 07:25:12;;;;;;;0.00;0.00;;;;;;;;;;4927952;29;20035;-57
2022/07/01 07:27:38;;;;;;;0.00;0.00;;;;;;;;;;4927182;29;20027;-58
2022/07/01 07:30:03;;;;;;;0.00;0.00;;;;;;;;;;4922582;29;20729;-57
2022/07/01 07:32:28;;;;;;;0.00;0.00;;;;;;;;;;4926335;29;20102;-55
2022/07/01 07:34:53;;;;;;;0.00;0.00;;;;;;;;;;4928626;29;20388;-57
2022/07/01 07:37:19;;;;;;;0.00;0.00;;;;;;;;;;4926946;29;20023;-58
2022/07/01 07:39:44;;;;;;;0.00;0.00;;;;;;;;;;4923812;29;20030;-60
2022/07/01 07:42:09;;;;;;;0.13;0.13;;;;;;;;;;4929853;29;20027;-59
2022/07/01 07:44:37;;;;;;;0.00;0.00;;;;;;;;;;4925824;29;20023;-59
2022/07/01 07:47:03;;;;;;;0.00;0.00;;;;;;;;;;4923637;29;20034;-59
2022/07/01 07:49:29;;;;;;;0.00;0.00;;;;;;;;;;4925780;29;20015;-60
2022/07/01 07:51:54;;;;;;;0.00;0.00;;;;;;;;;;4926255;29;20027;-56
2022/07/01 07:54:19;;;;;;;0.00;0.00;;;;;;;;;;4926963;29;20027;-68
2022/07/01 07:56:44;;;;;;;0.00;0.00;;;;;;;;;;4934777;29;20046;-66
2022/07/01 07:59:10;;;;;;;0.00;0.00;;;;;;;;;;4927573;29;20075;-62
2022/07/01 08:01:35;;;;;;;0.00;0.00;;;;;;;;;;4931104;29;20031;-62
2022/07/01 08:04:00;;;;;;;0.00;0.00;;;;;;;;;;4927378;29;20079;-64
2022/07/01 08:06:26;;;;;;;0.00;0.00;;;;;;;;;;4909688;29;20353;-63
2022/07/01 08:08:51;;;;;;;0.00;0.00;;;;;;;;;;4925722;29;20474;-62
2022/07/01 08:11:16;;;;;;;0.00;0.00;;;;;;;;;;4925043;29;20046;-61
2022/07/01 08:13:42;;;;;;;0.00;0.00;;;;;;;;;;4926164;29;20091;-63
2022/07/01 08:16:07;;;;;;;0.00;0.00;;;;;;;;;;4929360;29;20114;-62
2022/07/01 08:18:33;;;;;;;0.00;0.00;;;;;;;;;;4931047;29;20040;-63
2022/07/01 08:20:58;;;;;;;0.00;0.00;;;;;;;;;;4924510;29;20031;-63
2022/07/01 08:23:23;;;;;;;0.00;0.00;;;;;;;;;;4927065;29;20051;-63
2022/07/01 08:25:49;;;;;;;0.00;0.00;;;;;;;;;;4928698;29;20034;-61
2022/07/01 08:28:14;;;;;;;0.00;0.00;;;;;;;;;;4929003;29;20433;-62
2022/07/01 08:30:39;;;;;;;0.00;0.00;;;;;;;;;;4922736;29;20024;-61
2022/07/01 08:33:05;;;;;;;0.70;0.70;;;;;;;;;;4926390;29;20099;-62
2022/07/01 08:35:30;;;;;;;0.00;0.00;;;;;;;;;;4926136;29;20031;-65
2022/07/01 08:37:56;;;;;;;0.00;0.00;;;;;;;;;;4924067;29;20477;-62
2022/07/01 08:40:27;;;;;;;0.00;0.00;;;;;;;;;;4931894;29;20046;-62
2022/07/01 08:43:00;;;;;;;9.77;9.30;;;;;;;;;;4926829;29;20035;-63
2022/07/01 08:45:27;;;;;;;0.00;0.00;;;;;;;;;;4931649;29;20545;-62
2022/07/01 08:47:55;;;;;;;0.00;0.00;;;;;;;;;;4939536;29;20437;-62
2022/07/01 08:50:20;;;;;;;0.00;0.00;;;;;;;;;;4929054;29;20079;-62
2022/07/01 08:52:46;;;;;;;0.00;0.00;;;;;;;;;;4927464;29;20032;-62
2022/07/01 08:55:11;;;;;;;0.00;0.00;;;;;;;;;;4929624;29;20031;-63
2022/07/01 08:57:36;;;;;;;0.00;0.00;;;;;;;;;;4928499;29;20019;-62
2022/07/01 09:00:03;;;;;;;0.00;0.00;;;;;;;;;;4927939;29;20502;-63
2022/07/01 09:02:48;;;;;;;0.00;0.00;;;;;;;;;;4935124;29;20046;-63
2022/07/01 09:05:13;;;;;;;0.30;0.30;;;;;;;;;;4924303;29;20523;-62
2022/07/01 09:07:38;;;;;;;0.00;0.00;;;;;;;;;;4931258;29;20098;-62
2022/07/01 09:10:14;;;;;;;0.00;0.00;;;;;;;;;;4927751;29;20032;-62
2022/07/01 09:12:42;;;;;;;0.00;0.00;;;;;;;;;;4924768;29;20103;-62
2022/07/01 09:15:20;;;;;;;0.00;0.00;;;;;;;;;;4922305;29;20223;-61
2022/07/01 09:17:45;;;;;;;0.00;0.00;;;;;;;;;;4921394;29;20032;-64
2022/07/01 09:20:30;;;;;;;0.00;0.00;;;;;;;;;;4922490;29;20059;-63
2022/07/01 09:23:01;;;;;;;0.00;0.00;;;;;;;;;;4927183;29;20060;-64
2022/07/01 09:25:28;;;;;;;0.00;0.00;;;;;;;;;;4922705;29;20130;-63
2022/07/01 09:28:07;;;;;;;0.00;0.00;;;;;;;;;;4927149;29;20031;-62
2022/07/01 09:30:35;;;;;;;0.00;0.00;;;;;;;;;;4908349;29;20035;-64
2022/07/01 09:33:10;;;;;;;0.00;0.00;;;;;;;;;;4927091;29;20023;-65
2022/07/01 09:35:36;;;;;;;0.00;0.00;;;;;;;;;;4908988;29;20019;-66
2022/07/01 09:38:02;;;;;;;0.00;0.00;;;;;;;;;;4909450;29;20031;-65
2022/07/01 09:40:46;;;;;;;0.00;0.00;;;;;;;;;;4926089;29;20019;-66
2022/07/01 09:43:24;;;;;;;0.20;0.20;;;;;;;;;;4923213;29;20102;-64
2022/07/01 09:45:59;;;;;;;2.58;2.47;;;;;;;;;;4923691;29;20031;-63
2022/07/01 09:48:26;;;;;;;0.00;0.00;;;;;;;;;;4926658;29;20030;-63
2022/07/01 09:50:52;;;;;;;0.17;0.17;;;;;;;;;;4923905;29;20585;-64
2022/07/01 09:53:17;;;;;;;0.00;0.00;;;;;;;;;;4924723;29;20098;-63
2022/07/01 09:55:42;;;;;;;0.00;0.00;;;;;;;;;;4920570;29;20390;-61
2022/07/01 09:58:08;;;;;;;0.00;0.00;;;;;;;;;;4922770;29;20043;-65
2022/07/01 10:00:35;;;;;;;0.00;0.00;;;;;;;;;;4901970;29;20027;-62
2022/07/01 10:03:01;;;;;;;0.20;0.20;;;;;;;;;;4921996;29;20020;-63
2022/07/01 10:05:26;;;;;;;0.00;0.00;;;;;;;;;;4928131;29;20369;-66
2022/07/01 10:08:01;;;;;;;0.00;0.00;;;;;;;;;;4923621;29;20021;-62
2022/07/01 10:10:35;;;;;;;0.00;0.00;;;;;;;;;;4921740;29;20056;-63
2022/07/01 10:13:01;;;;;;;0.00;0.00;;;;;;;;;;4926753;29;20507;-63
2022/07/01 10:15:27;;;;;;;0.00;0.00;;;;;;;;;;4926985;29;20108;-63
2022/07/01 10:17:53;;;;;;;0.00;0.00;;;;;;;;;;4923380;29;20102;-62
2022/07/01 10:20:19;;;;;;;0.00;0.00;;;;;;;;;;4919134;29;20054;-66
2022/07/01 10:22:45;;;;;;;0.00;0.00;;;;;;;;;;4924464;29;20044;-62
2022/07/01 10:25:30;;;;;;;0.10;0.10;;;;;;;;;;4908054;29;20095;-62
2022/07/01 10:28:14;;;;;;;0.00;0.00;;;;;;;;;;4928315;29;20058;-62
2022/07/01 10:31:01;;;;;;;0.03;0.03;;;;;;;;;;4927183;29;20484;-62
2022/07/01 10:33:45;;;;;;;0.00;0.00;;;;;;;;;;4929081;29;20031;-62
2022/07/01 10:36:12;;;;;;;0.00;0.00;;;;;;;;;;4925134;29;20039;-61
2022/07/01 10:38:56;;;;;;;0.00;0.00;;;;;;;;;;4924418;29;20031;-61
2022/07/01 10:41:24;;;;;;;0.00;0.00;;;;;;;;;;4925474;29;20046;-60
2022/07/01 10:43:50;;;;;;;0.00;0.00;;;;;;;;;;4924550;29;20036;-62
2022/07/01 10:46:34;;;;;;;0.00;0.00;;;;;;;;;;4926968;29;20032;-61
2022/07/01 10:48:59;;;;;;;0.00;0.00;;;;;;;;;;4927146;29;20040;-61
2022/07/01 10:51:42;;;;;;;0.00;0.00;;;;;;;;;;4924034;29;20034;-62
2022/07/01 10:54:08;;;;;;;1.90;0.15;;;;;;;;;;4918234;29;20398;-61
2022/07/01 10:56:37;;;;;;;0.00;0.00;;;;;;;;;;4921769;29;20032;-62
2022/07/01 10:59:03;;;;;;;0.00;0.00;;;;;;;;;;4929384;29;20450;-62
2022/07/01 11:01:30;;;;;;;0.00;0.00;;;;;;;;;;4931329;29;20026;-62
2022/07/01 11:03:55;;;;;;;0.00;0.00;;;;;;;;;;4931513;29;20028;-61
2022/07/01 11:06:20;;;;;;;0.00;0.00;;;;;;;;;;4932037;29;20038;-62
2022/07/01 11:08:49;;;;;;;0.00;0.00;;;;;;;;;;4930501;29;20052;-62
2022/07/01 11:11:14;;;;;;;0.00;0.00;;;;;;;;;;4932210;29;20458;-61
2022/07/01 11:13:40;;;;;;;0.00;0.00;;;;;;;;;;4929829;29;20035;-59
2022/07/01 11:16:05;;;;;;;0.75;0.55;;;;;;;;;;4925260;29;20103;-59
2022/07/01 11:18:30;;;;;;;3.20;3.00;;;;;;;;;;4926175;29;20062;-59
2022/07/01 11:21:03;;;;;;;2.33;2.08;;;;;;;;;;4928980;29;20137;-58
2022/07/01 11:23:28;;;;;;;0.20;0.20;;;;;;;;;;4927895;29;20027;-59
2022/07/01 11:25:53;;;;;;;0.00;0.00;;;;;;;;;;4929266;29;20028;-59
2022/07/01 11:28:18;;;;;;;0.98;0.75;;;;;;;;;;4927644;29;20042;-59
2022/07/01 11:30:44;;;;;;;0.00;0.00;;;;;;;;;;4930096;29;20028;-59
2022/07/01 11:33:10;;;;;;;0.00;0.00;;;;;;;;;;4929473;29;20023;-59
2022/07/01 11:41:05;;;;;;;0.00;0.00;;;;;;;;;;4927802;29;20038;-59
2022/07/01 11:43:35;;;;;;;0.00;0.00;;;;;;;;;;4928252;29;20031;-59
2022/07/01 11:46:02;;;;;;;0.00;0.00;;;;;;;;;;4930084;29;20058;-59
2022/07/01 11:48:31;;;;;;;0.10;0.10;;;;;;;;;;4905915;29;20114;-60
2022/07/01 11:50:57;;;;;;;0.00;0.00;;;;;;;;;;4922065;29;20492;-59
2022/07/01 11:53:23;;;;;;;0.00;0.00;;;;;;;;;;4924714;29;20028;-59
2022/07/01 11:55:48;;;;;;;0.00;0.00;;;;;;;;;;4920618;29;20443;-60
2022/07/01 11:58:13;;;;;;;0.00;0.00;;;;;;;;;;4924722;29;20046;-59
2022/07/01 12:00:39;;;;;;;0.00;0.00;;;;;;;;;;4920957;29;20028;-59
2022/07/01 12:03:05;;;;;;;0.00;0.00;;;;;;;;;;4907402;29;20024;-60
2022/07/01 12:05:34;;;;;;;0.00;0.00;;;;;;;;;;4924185;29;20043;-59
2022/07/01 12:07:59;;;;;;;0.00;0.00;;;;;;;;;;4923319;29;20430;-59
2022/07/01 12:10:25;;;;;;;0.00;0.00;;;;;;;;;;4923466;29;20174;-59
2022/07/01 12:12:50;;;;;;;0.00;0.00;;;;;;;;;;4925412;29;20041;-59
2022/07/01 12:15:15;;;;;;;0.00;0.00;;;;;;;;;;4922103;29;20023;-60
2022/07/01 12:17:41;;;;;;;0.22;0.22;;;;;;;;;;4924955;29;20059;-59
2022/07/01 12:20:06;;;;;;;0.00;0.00;;;;;;;;;;4924932;29;21381;-59
2022/07/01 12:22:32;;;;;;;0.00;0.00;;;;;;;;;;4925226;29;20020;-58
2022/07/01 12:25:07;;;;;;;0.00;0.00;;;;;;;;;;4926872;29;20038;-58
2022/07/01 12:27:33;;;;;;;2.72;0.85;;;;;;;;;;4926478;29;20381;-58
2022/07/01 12:29:59;;;;;;;0.15;0.00;;;;;;;;;;4924440;29;20032;-59
2022/07/01 12:32:26;;;;;;;0.00;0.00;;;;;;;;;;4912685;29;20024;-59
2022/07/01 12:34:52;;;;;;;0.00;0.00;;;;;;;;;;4922368;29;20470;-59
2022/07/01 12:37:26;;;;;;;0.60;0.60;;;;;;;;;;4928997;29;20035;-59
2022/07/01 12:39:52;;;;;;;0.00;0.00;;;;;;;;;;4921295;29;20024;-59
2022/07/01 12:42:22;;;;;;;0.00;0.00;;;;;;;;;;4922039;29;20115;-59
2022/07/01 12:44:48;;;;;;;0.00;0.00;;;;;;;;;;4924761;29;20377;-59
2022/07/01 12:47:19;;;;;;;0.00;0.00;;;;;;;;;;4927055;29;20047;-59
2022/07/01 12:49:45;;;;;;;0.00;0.00;;;;;;;;;;4928051;29;20024;-59
2022/07/01 12:52:23;;;;;;;0.00;0.00;;;;;;;;;;4927057;29;20460;-57
2022/07/01 12:54:48;;;;;;;0.00;0.00;;;;;;;;;;4924007;29;20099;-58
2022/07/01 12:57:13;;;;;;;0.00;0.00;;;;;;;;;;4925209;29;20111;-57
2022/07/01 12:59:39;;;;;;;0.00;0.00;;;;;;;;;;4919667;29;20086;-58
2022/07/01 13:02:04;;;;;;;0.00;0.00;;;;;;;;;;4925758;29;20115;-59
2022/07/01 13:04:31;;;;;;;0.00;0.00;;;;;;;;;;4922056;29;20055;-59
2022/07/01 13:06:57;;;;;;;0.00;0.00;;;;;;;;;;4928438;29;20075;-59
2022/07/01 13:09:22;;;;;;;0.00;0.00;;;;;;;;;;4923599;29;20036;-60
2022/07/01 13:11:47;;;;;;;0.00;0.00;;;;;;;;;;4926845;29;20023;-59
2022/07/01 13:14:12;;;;;;;0.30;0.30;;;;;;;;;;4926580;29;20115;-58
2022/07/01 13:16:38;;;;;;;0.00;0.00;;;;;;;;;;4918288;29;20123;-58
2022/07/01 13:19:03;;;;;;;0.00;0.00;;;;;;;;;;4925497;29;20052;-58
2022/07/01 13:21:31;;;;;;;0.00;0.00;;;;;;;;;;4928405;29;20869;-58
2022/07/01 13:23:57;;;;;;;0.00;0.00;;;;;;;;;;4924337;29;20106;-59
2022/07/01 13:26:22;;;;;;;0.00;0.00;;;;;;;;;;4906388;29;20115;-58
2022/07/01 13:28:47;;;;;;;0.00;0.00;;;;;;;;;;4910977;29;20114;-58
2022/07/01 13:31:12;;;;;;;1.75;0.28;;;;;;;;;;4925319;29;20438;-59
2022/07/01 13:33:38;;;;;;;0.00;0.00;;;;;;;;;;4924701;29;20537;-58
2022/07/01 13:36:03;;;;;;;0.00;0.00;;;;;;;;;;4925396;29;20056;-59
2022/07/01 13:38:28;;;;;;;0.57;0.57;;;;;;;;;;4924829;29;20848;-59
2022/07/01 13:40:53;;;;;;;0.00;0.00;;;;;;;;;;4924711;29;20512;-59
2022/07/01 13:43:19;;;;;;;0.00;0.00;;;;;;;;;;4923915;29;20103;-60
2022/07/01 13:45:44;;;;;;;0.00;0.00;;;;;;;;;;4922695;29;20054;-60
2022/07/01 13:48:09;;;;;;;0.00;0.00;;;;;;;;;;4930134;29;20441;-59
2022/07/01 13:50:35;;;;;;;0.00;0.00;;;;;;;;;;4924976;29;20135;-58
2022/07/01 13:53:00;;;;;;;0.00;0.00;;;;;;;;;;4934206;29;20028;-59
2022/07/01 13:55:25;;;;;;;0.00;0.00;;;;;;;;;;4931377;29;20164;-59
2022/07/01 13:57:50;;;;;;;0.00;0.00;;;;;;;;;;4913100;29;20055;-58
2022/07/01 14:00:16;;;;;;;0.00;0.00;;;;;;;;;;4930700;29;20474;-59
2022/07/01 14:02:41;;;;;;;0.00;0.00;;;;;;;;;;4929021;29;20493;-59
2022/07/01 14:05:07;;;;;;;0.00;0.00;;;;;;;;;;4926765;29;20023;-58
2022/07/01 14:07:32;;;;;;;0.00;0.00;;;;;;;;;;4935150;29;20382;-58
2022/07/01 14:09:57;;;;;;;0.00;0.00;;;;;;;;;;4928996;29;20518;-61
2022/07/01 14:12:22;;;;;;;0.00;0.00;;;;;;;;;;4925086;29;20050;-59
2022/07/01 14:14:48;;;;;;;0.00;0.00;;;;;;;;;;4927897;29;20079;-59
2022/07/01 14:17:13;;;;;;;0.00;0.00;;;;;;;;;;4929011;29;20020;-58
2022/07/01 14:19:38;;;;;;;0.00;0.00;;;;;;;;;;4927179;29;20051;-58
2022/07/01 14:22:04;;;;;;;0.00;0.00;;;;;;;;;;4929893;29;20030;-57
2022/07/01 14:24:29;;;;;;;0.13;0.13;;;;;;;;;;4927052;29;20114;-57
2022/07/01 14:26:54;;;;;;;0.00;0.00;;;;;;;;;;4926715;29;20028;-58
2022/07/01 14:29:19;;;;;;;0.10;0.10;;;;;;;;;;4930608;29;20054;-58
2022/07/01 14:31:45;;;;;;;0.08;0.08;;;;;;;;;;4931831;29;20051;-58
2022/07/01 14:34:11;;;;;;;0.05;0.05;;;;;;;;;;4927964;29;20503;-58
2022/07/01 14:36:36;;;;;;;0.03;0.03;;;;;;;;;;4927694;29;20016;-59
2022/07/01 14:39:01;;;;;;;0.00;0.00;;;;;;;;;;4930435;29;20079;-58
2022/07/01 14:41:27;;;;;;;0.00;0.00;;;;;;;;;;4930938;29;20083;-58
2022/07/01 14:43:52;;;;;;;0.00;0.00;;;;;;;;;;4928698;29;20036;-57
2022/07/01 14:46:17;;;;;;;0.00;0.00;;;;;;;;;;4930818;29;20098;-58
2022/07/01 14:48:42;;;;;;;0.00;0.00;;;;;;;;;;4928745;29;20095;-58
2022/07/01 14:51:08;;;;;;;0.00;0.00;;;;;;;;;;4930115;29;20079;-58
2022/07/01 14:53:33;;;;;;;0.00;0.00;;;;;;;;;;4931049;29;20335;-58
2022/07/01 14:55:58;;;;;;;0.00;0.00;;;;;;;;;;4931114;29;20024;-58
2022/07/01 14:58:24;;;;;;;0.00;0.00;;;;;;;;;;4929683;29;20489;-58